Terminal Aerodrome Forecast
Issued by NWS

Home | Current Version | Previous Version | Text Only | Print | Product List | Glossary On
Versions: 1 2 3 4 5 6 7 8 9 10 11 12 13 14 15 16 17 18 19 20
000
FTUS46 KSGX 271700
TAFSAN
TAF
KSAN 271720Z 2718/2824 VRB05KT P6SM SKC
     FM272200 30008KT P6SM SKC
     FM280200 VRB05KT P6SM SCT250
     FM282200 27005KT P6SM SCT250=

USA.gov is the U.S. government's official web portal to all federal, state and local government web resources and services.